logo
Rechercher aéroport 
image banner adimage banner adimage banner ad
image banner ad

2B9 - Post Mills

Situé à Post Mills, United States

ICAO - 2B9, IATA -

Données fournies par Airmate  

Information générale

Coordonnées: N43°53'1" W72°15'7"
Élévation : 696 feet MSL.
Variation magnétique : -16° East
Voir autres Aéroports à Vermont

Données opérationnelles

Special qualification required
Heure actuelle UTC:
Heure actuelle locale:
Météo à : KLEB - Lebanon Muni ( 29 km )
METAR: KLEB 251753Z 14003KT 10SM CLR 23/08 A2985 RMK AO2 SLP102 T02280078 10233 20122 58017
TAF: KLEB 251732Z 2518/2618 VRB03KT P6SM SKC FM260000 00000KT P6SM OVC100 FM260800 00000KT P6SM OVC050 FM261100 00000KT P6SM OVC025
Voir NOTAMs / SUP AIP / TFR affectant cet aéroport [VIEW]
Fréquences de communication: [VIEW]

Pistes:

Identifiant RWYQFULongueur (ft)Largeur (ft)SurfaceLDA (ft)
04290080GRASS
22290080GRASS
0533°230080GRASS
23213°230080GRASS

Coordonnées de l'aéroport

Adresse: Post Mills United States

Vue satellite de 2B9